sensor_id;sensor_type;location;lat;lon;timestamp;P1;durP1;ratioP1;P2;durP2;ratioP2
77076;SDS011;66003;52.286;104.306;2024-01-15T00:02:07;2.05;;;1.60;;
77076;SDS011;66003;52.286;104.306;2024-01-15T00:04:37;2.03;;;1.90;;
77076;SDS011;66003;52.286;104.306;2024-01-15T00:07:04;3.03;;;1.92;;
77076;SDS011;66003;52.286;104.306;2024-01-15T00:09:49;2.47;;;1.75;;
77076;SDS011;66003;52.286;104.306;2024-01-15T00:12:15;3.65;;;1.35;;
77076;SDS011;66003;52.286;104.306;2024-01-15T00:14:41;1.75;;;1.63;;
77076;SDS011;66003;52.286;104.306;2024-01-15T00:17:08;3.50;;;1.05;;
77076;SDS011;66003;52.286;104.306;2024-01-15T00:19:34;1.05;;;0.65;;
77076;SDS011;66003;52.286;104.306;2024-01-15T00:22:18;2.58;;;0.98;;
77076;SDS011;66003;52.286;104.306;2024-01-15T00:25:03;1.38;;;1.38;;
77076;SDS011;66003;52.286;104.306;2024-01-15T00:27:30;1.92;;;0.95;;
77076;SDS011;66003;52.286;104.306;2024-01-15T00:29:56;2.53;;;1.50;;
77076;SDS011;66003;52.286;104.306;2024-01-15T00:32:22;2.88;;;1.38;;
77076;SDS011;66003;52.286;104.306;2024-01-15T00:34:48;1.38;;;1.02;;
77076;SDS011;66003;52.286;104.306;2024-01-15T00:37:15;1.63;;;0.95;;
77076;SDS011;66003;52.286;104.306;2024-01-15T00:39:41;2.13;;;0.93;;
77076;SDS011;66003;52.286;104.306;2024-01-15T00:42:07;3.38;;;1.70;;
77076;SDS011;66003;52.286;104.306;2024-01-15T00:44:34;2.80;;;1.98;;
77076;SDS011;66003;52.286;104.306;2024-01-15T00:47:00;3.00;;;1.52;;
77076;SDS011;66003;52.286;104.306;2024-01-15T00:49:27;4.45;;;1.60;;
77076;SDS011;66003;52.286;104.306;2024-01-15T00:51:53;2.25;;;1.38;;
77076;SDS011;66003;52.286;104.306;2024-01-15T00:54:20;1.52;;;1.35;;
77076;SDS011;66003;52.286;104.306;2024-01-15T00:56:46;2.15;;;1.00;;
77076;SDS011;66003;52.286;104.306;2024-01-15T00:59:12;5.28;;;2.10;;
77076;SDS011;66003;52.286;104.306;2024-01-15T01:01:41;2.20;;;1.25;;
77076;SDS011;66003;52.286;104.306;2024-01-15T01:04:12;4.68;;;1.63;;
77076;SDS011;66003;52.286;104.306;2024-01-15T01:06:38;2.38;;;1.52;;
77076;SDS011;66003;52.286;104.306;2024-01-15T01:09:04;2.88;;;1.77;;
77076;SDS011;66003;52.286;104.306;2024-01-15T01:11:31;2.13;;;1.27;;
77076;SDS011;66003;52.286;104.306;2024-01-15T01:13:57;3.55;;;1.92;;
77076;SDS011;66003;52.286;104.306;2024-01-15T01:16:23;2.90;;;1.20;;
77076;SDS011;66003;52.286;104.306;2024-01-15T01:18:50;2.58;;;1.17;;
77076;SDS011;66003;52.286;104.306;2024-01-15T01:21:16;5.40;;;1.63;;
77076;SDS011;66003;52.286;104.306;2024-01-15T01:23:42;1.27;;;1.17;;
77076;SDS011;66003;52.286;104.306;2024-01-15T01:26:08;2.38;;;2.17;;
77076;SDS011;66003;52.286;104.306;2024-01-15T01:28:35;4.10;;;1.48;;
77076;SDS011;66003;52.286;104.306;2024-01-15T01:33:45;2.40;;;1.38;;
77076;SDS011;66003;52.286;104.306;2024-01-15T01:36:12;4.10;;;1.80;;
77076;SDS011;66003;52.286;104.306;2024-01-15T01:38:39;2.22;;;2.03;;
77076;SDS011;66003;52.286;104.306;2024-01-15T01:41:06;2.78;;;1.45;;
77076;SDS011;66003;52.286;104.306;2024-01-15T01:43:32;2.00;;;1.23;;
77076;SDS011;66003;52.286;104.306;2024-01-15T01:46:00;0.98;;;0.77;;
77076;SDS011;66003;52.286;104.306;2024-01-15T01:48:27;3.08;;;0.88;;
77076;SDS011;66003;52.286;104.306;2024-01-15T01:50:54;2.17;;;1.60;;
77076;SDS011;66003;52.286;104.306;2024-01-15T01:53:22;3.17;;;1.67;;
77076;SDS011;66003;52.286;104.306;2024-01-15T01:55:51;2.85;;;1.20;;
77076;SDS011;66003;52.286;104.306;2024-01-15T01:58:18;3.30;;;1.65;;
77076;SDS011;66003;52.286;104.306;2024-01-15T02:00:45;2.85;;;1.45;;
77076;SDS011;66003;52.286;104.306;2024-01-15T02:03:31;1.85;;;1.25;;
77076;SDS011;66003;52.286;104.306;2024-01-15T02:05:58;1.73;;;0.90;;
77076;SDS011;66003;52.286;104.306;2024-01-15T02:08:25;2.50;;;1.08;;
77076;SDS011;66003;52.286;104.306;2024-01-15T02:10:52;2.47;;;1.50;;
77076;SDS011;66003;52.286;104.306;2024-01-15T02:13:20;3.70;;;2.45;;
77076;SDS011;66003;52.286;104.306;2024-01-15T02:15:46;2.53;;;1.70;;
77076;SDS011;66003;52.286;104.306;2024-01-15T02:18:12;1.30;;;0.95;;
77076;SDS011;66003;52.286;104.306;2024-01-15T02:20:39;2.45;;;0.95;;
77076;SDS011;66003;52.286;104.306;2024-01-15T02:25:41;1.77;;;1.25;;
77076;SDS011;66003;52.286;104.306;2024-01-15T02:28:15;1.67;;;1.58;;
77076;SDS011;66003;52.286;104.306;2024-01-15T02:30:43;1.90;;;1.15;;
77076;SDS011;66003;52.286;104.306;2024-01-15T02:33:10;3.08;;;1.30;;
77076;SDS011;66003;52.286;104.306;2024-01-15T02:35:37;2.95;;;1.50;;
77076;SDS011;66003;52.286;104.306;2024-01-15T02:38:04;1.42;;;1.25;;
77076;SDS011;66003;52.286;104.306;2024-01-15T02:40:31;2.75;;;1.58;;
77076;SDS011;66003;52.286;104.306;2024-01-15T02:42:58;2.75;;;1.08;;
77076;SDS011;66003;52.286;104.306;2024-01-15T02:45:24;2.40;;;1.00;;
77076;SDS011;66003;52.286;104.306;2024-01-15T02:47:51;3.47;;;0.88;;
77076;SDS011;66003;52.286;104.306;2024-01-15T02:50:18;2.30;;;1.50;;
77076;SDS011;66003;52.286;104.306;2024-01-15T02:55:11;2.42;;;1.80;;
77076;SDS011;66003;52.286;104.306;2024-01-15T02:57:37;2.92;;;1.77;;
77076;SDS011;66003;52.286;104.306;2024-01-15T03:00:03;2.00;;;0.88;;
77076;SDS011;66003;52.286;104.306;2024-01-15T03:02:31;2.25;;;1.48;;
77076;SDS011;66003;52.286;104.306;2024-01-15T03:04:57;2.63;;;1.15;;
77076;SDS011;66003;52.286;104.306;2024-01-15T03:07:23;3.38;;;1.08;;
77076;SDS011;66003;52.286;104.306;2024-01-15T03:09:50;3.90;;;1.65;;
77076;SDS011;66003;52.286;104.306;2024-01-15T03:12:16;1.90;;;1.50;;
77076;SDS011;66003;52.286;104.306;2024-01-15T03:14:43;1.88;;;1.25;;
77076;SDS011;66003;52.286;104.306;2024-01-15T03:17:09;2.70;;;2.50;;
77076;SDS011;66003;52.286;104.306;2024-01-15T03:19:36;2.10;;;0.82;;
77076;SDS011;66003;52.286;104.306;2024-01-15T03:22:03;2.00;;;1.33;;
77076;SDS011;66003;52.286;104.306;2024-01-15T03:24:30;0.98;;;0.70;;
77076;SDS011;66003;52.286;104.306;2024-01-15T03:26:57;1.13;;;1.02;;
77076;SDS011;66003;52.286;104.306;2024-01-15T03:29:23;1.77;;;1.67;;
77076;SDS011;66003;52.286;104.306;2024-01-15T03:31:49;1.13;;;1.02;;
77076;SDS011;66003;52.286;104.306;2024-01-15T03:34:16;2.75;;;0.90;;
77076;SDS011;66003;52.286;104.306;2024-01-15T03:36:42;2.65;;;2.42;;
77076;SDS011;66003;52.286;104.306;2024-01-15T03:39:08;2.63;;;1.08;;
77076;SDS011;66003;52.286;104.306;2024-01-15T03:44:19;2.17;;;1.10;;
77076;SDS011;66003;52.286;104.306;2024-01-15T03:46:45;3.03;;;1.50;;
77076;SDS011;66003;52.286;104.306;2024-01-15T03:49:11;2.25;;;1.02;;
77076;SDS011;66003;52.286;104.306;2024-01-15T03:51:37;2.83;;;1.70;;
77076;SDS011;66003;52.286;104.306;2024-01-15T03:54:03;1.25;;;0.60;;
77076;SDS011;66003;52.286;104.306;2024-01-15T03:56:48;2.78;;;1.77;;
77076;SDS011;66003;52.286;104.306;2024-01-15T03:59:14;2.25;;;1.17;;
77076;SDS011;66003;52.286;104.306;2024-01-15T04:01:40;2.55;;;1.40;;
77076;SDS011;66003;52.286;104.306;2024-01-15T04:04:06;1.13;;;0.77;;
77076;SDS011;66003;52.286;104.306;2024-01-15T04:06:32;2.38;;;2.17;;
77076;SDS011;66003;52.286;104.306;2024-01-15T04:08:59;2.58;;;1.02;;
77076;SDS011;66003;52.286;104.306;2024-01-15T04:11:25;1.33;;;1.23;;
77076;SDS011;66003;52.286;104.306;2024-01-15T04:13:51;4.07;;;1.73;;
77076;SDS011;66003;52.286;104.306;2024-01-15T04:16:17;1.95;;;0.73;;
77076;SDS011;66003;52.286;104.306;2024-01-15T04:18:43;3.25;;;1.35;;
77076;SDS011;66003;52.286;104.306;2024-01-15T04:21:09;1.55;;;1.02;;
77076;SDS011;66003;52.286;104.306;2024-01-15T04:23:36;1.85;;;1.55;;
77076;SDS011;66003;52.286;104.306;2024-01-15T04:26:02;3.70;;;1.33;;
77076;SDS011;66003;52.286;104.306;2024-01-15T04:28:28;1.42;;;1.08;;
77076;SDS011;66003;52.286;104.306;2024-01-15T04:30:54;0.85;;;0.47;;
77076;SDS011;66003;52.286;104.306;2024-01-15T04:33:20;2.90;;;2.70;;
77076;SDS011;66003;52.286;104.306;2024-01-15T04:35:47;4.50;;;2.00;;
77076;SDS011;66003;52.286;104.306;2024-01-15T04:38:13;2.22;;;0.65;;
77076;SDS011;66003;52.286;104.306;2024-01-15T04:40:39;1.45;;;1.35;;
77076;SDS011;66003;52.286;104.306;2024-01-15T04:43:05;1.98;;;0.85;;
77076;SDS011;66003;52.286;104.306;2024-01-15T04:45:31;1.90;;;1.17;;
77076;SDS011;66003;52.286;104.306;2024-01-15T04:47:57;2.97;;;1.10;;
77076;SDS011;66003;52.286;104.306;2024-01-15T04:50:23;2.33;;;1.70;;
77076;SDS011;66003;52.286;104.306;2024-01-15T04:53:09;2.55;;;2.05;;
77076;SDS011;66003;52.286;104.306;2024-01-15T04:55:36;2.78;;;1.27;;
77076;SDS011;66003;52.286;104.306;2024-01-15T04:58:02;2.28;;;1.15;;
77076;SDS011;66003;52.286;104.306;2024-01-15T05:00:29;6.63;;;0.93;;
77076;SDS011;66003;52.286;104.306;2024-01-15T05:02:55;1.83;;;1.30;;
77076;SDS011;66003;52.286;104.306;2024-01-15T05:05:21;1.45;;;1.00;;
77076;SDS011;66003;52.286;104.306;2024-01-15T05:07:48;1.15;;;0.52;;
77076;SDS011;66003;52.286;104.306;2024-01-15T05:10:14;1.45;;;0.47;;
77076;SDS011;66003;52.286;104.306;2024-01-15T05:12:40;2.08;;;0.93;;
77076;SDS011;66003;52.286;104.306;2024-01-15T05:15:07;1.95;;;1.48;;
77076;SDS011;66003;52.286;104.306;2024-01-15T05:17:33;1.55;;;1.42;;
77076;SDS011;66003;52.286;104.306;2024-01-15T05:20:00;1.05;;;0.63;;
77076;SDS011;66003;52.286;104.306;2024-01-15T05:22:26;1.60;;;1.50;;
77076;SDS011;66003;52.286;104.306;2024-01-15T05:24:52;2.05;;;1.33;;
77076;SDS011;66003;52.286;104.306;2024-01-15T05:27:18;0.93;;;0.85;;
77076;SDS011;66003;52.286;104.306;2024-01-15T05:29:44;0.57;;;0.38;;
77076;SDS011;66003;52.286;104.306;2024-01-15T05:32:10;2.70;;;1.30;;
77076;SDS011;66003;52.286;104.306;2024-01-15T05:34:36;3.28;;;1.92;;
77076;SDS011;66003;52.286;104.306;2024-01-15T05:37:03;2.40;;;0.85;;
77076;SDS011;66003;52.286;104.306;2024-01-15T05:39:47;0.60;;;0.60;;
77076;SDS011;66003;52.286;104.306;2024-01-15T05:42:13;1.45;;;0.80;;
77076;SDS011;66003;52.286;104.306;2024-01-15T05:44:40;1.58;;;1.30;;
77076;SDS011;66003;52.286;104.306;2024-01-15T05:47:06;1.75;;;0.65;;
77076;SDS011;66003;52.286;104.306;2024-01-15T05:49:33;0.75;;;0.63;;
77076;SDS011;66003;52.286;104.306;2024-01-15T05:51:59;1.95;;;0.73;;
77076;SDS011;66003;52.286;104.306;2024-01-15T05:54:25;2.47;;;2.28;;
77076;SDS011;66003;52.286;104.306;2024-01-15T05:56:51;1.73;;;1.50;;
77076;SDS011;66003;52.286;104.306;2024-01-15T05:59:18;0.95;;;0.93;;
77076;SDS011;66003;52.286;104.306;2024-01-15T06:01:44;1.08;;;0.38;;
77076;SDS011;66003;52.286;104.306;2024-01-15T06:04:10;1.25;;;1.02;;
77076;SDS011;66003;52.286;104.306;2024-01-15T06:09:21;2.35;;;1.27;;
77076;SDS011;66003;52.286;104.306;2024-01-15T06:11:47;0.63;;;0.63;;
77076;SDS011;66003;52.286;104.306;2024-01-15T06:14:13;4.20;;;1.30;;
77076;SDS011;66003;52.286;104.306;2024-01-15T06:16:40;0.70;;;0.70;;
77076;SDS011;66003;52.286;104.306;2024-01-15T06:19:06;1.25;;;0.98;;
77076;SDS011;66003;52.286;104.306;2024-01-15T06:21:32;1.10;;;1.08;;
77076;SDS011;66003;52.286;104.306;2024-01-15T06:29:14;0.90;;;0.90;;
77076;SDS011;66003;52.286;104.306;2024-01-15T06:31:40;0.55;;;0.55;;
77076;SDS011;66003;52.286;104.306;2024-01-15T06:34:06;1.95;;;1.08;;
77076;SDS011;66003;52.286;104.306;2024-01-15T06:36:32;2.00;;;1.40;;
77076;SDS011;66003;52.286;104.306;2024-01-15T06:38:59;1.75;;;1.42;;
77076;SDS011;66003;52.286;104.306;2024-01-15T06:41:25;0.88;;;0.88;;
77076;SDS011;66003;52.286;104.306;2024-01-15T06:43:51;1.38;;;1.17;;
77076;SDS011;66003;52.286;104.306;2024-01-15T06:46:21;2.92;;;1.15;;
77076;SDS011;66003;52.286;104.306;2024-01-15T06:48:47;5.13;;;1.23;;
77076;SDS011;66003;52.286;104.306;2024-01-15T06:51:15;2.13;;;1.05;;
77076;SDS011;66003;52.286;104.306;2024-01-15T06:53:42;1.13;;;1.10;;
77076;SDS011;66003;52.286;104.306;2024-01-15T06:56:08;1.48;;;1.23;;
77076;SDS011;66003;52.286;104.306;2024-01-15T06:58:34;4.95;;;1.52;;
77076;SDS011;66003;52.286;104.306;2024-01-15T07:01:00;7.68;;;2.22;;
77076;SDS011;66003;52.286;104.306;2024-01-15T07:03:27;1.10;;;1.00;;
77076;SDS011;66003;52.286;104.306;2024-01-15T07:05:53;5.20;;;2.05;;
77076;SDS011;66003;52.286;104.306;2024-01-15T07:08:20;3.53;;;1.67;;
77076;SDS011;66003;52.286;104.306;2024-01-15T07:10:46;2.47;;;1.02;;
77076;SDS011;66003;52.286;104.306;2024-01-15T07:13:12;5.40;;;2.42;;
77076;SDS011;66003;52.286;104.306;2024-01-15T07:15:38;5.47;;;1.83;;
77076;SDS011;66003;52.286;104.306;2024-01-15T07:18:05;7.38;;;2.45;;
77076;SDS011;66003;52.286;104.306;2024-01-15T07:20:31;3.63;;;1.27;;
77076;SDS011;66003;52.286;104.306;2024-01-15T07:22:57;5.32;;;2.30;;
77076;SDS011;66003;52.286;104.306;2024-01-15T07:25:23;6.72;;;2.83;;
77076;SDS011;66003;52.286;104.306;2024-01-15T07:27:51;3.92;;;1.90;;
77076;SDS011;66003;52.286;104.306;2024-01-15T07:30:19;7.05;;;2.75;;
77076;SDS011;66003;52.286;104.306;2024-01-15T07:32:47;13.88;;;2.45;;
77076;SDS011;66003;52.286;104.306;2024-01-15T07:35:14;1.88;;;1.40;;
77076;SDS011;66003;52.286;104.306;2024-01-15T07:37:41;3.28;;;1.70;;
77076;SDS011;66003;52.286;104.306;2024-01-15T07:40:07;6.30;;;1.90;;
77076;SDS011;66003;52.286;104.306;2024-01-15T07:42:34;4.20;;;2.22;;
77076;SDS011;66003;52.286;104.306;2024-01-15T07:45:00;4.35;;;2.33;;
77076;SDS011;66003;52.286;104.306;2024-01-15T07:47:28;4.95;;;2.95;;
77076;SDS011;66003;52.286;104.306;2024-01-15T07:49:54;7.70;;;2.58;;
77076;SDS011;66003;52.286;104.306;2024-01-15T07:52:21;6.63;;;2.20;;
77076;SDS011;66003;52.286;104.306;2024-01-15T07:54:47;3.28;;;2.90;;
77076;SDS011;66003;52.286;104.306;2024-01-15T07:57:13;10.68;;;3.72;;
77076;SDS011;66003;52.286;104.306;2024-01-15T07:59:39;6.63;;;2.60;;
77076;SDS011;66003;52.286;104.306;2024-01-15T08:02:05;6.72;;;2.30;;
77076;SDS011;66003;52.286;104.306;2024-01-15T08:04:32;7.72;;;3.60;;
77076;SDS011;66003;52.286;104.306;2024-01-15T08:06:58;9.23;;;3.42;;
77076;SDS011;66003;52.286;104.306;2024-01-15T08:09:24;12.85;;;3.45;;
77076;SDS011;66003;52.286;104.306;2024-01-15T08:11:50;10.75;;;3.95;;
77076;SDS011;66003;52.286;104.306;2024-01-15T08:14:17;10.48;;;4.57;;
77076;SDS011;66003;52.286;104.306;2024-01-15T08:16:43;13.38;;;2.08;;
77076;SDS011;66003;52.286;104.306;2024-01-15T08:19:09;8.68;;;3.80;;
77076;SDS011;66003;52.286;104.306;2024-01-15T08:21:36;7.55;;;2.58;;
77076;SDS011;66003;52.286;104.306;2024-01-15T08:24:02;8.38;;;3.35;;
77076;SDS011;66003;52.286;104.306;2024-01-15T08:26:29;5.32;;;1.65;;
77076;SDS011;66003;52.286;104.306;2024-01-15T08:28:55;9.85;;;4.45;;
77076;SDS011;66003;52.286;104.306;2024-01-15T08:31:22;9.05;;;2.63;;
77076;SDS011;66003;52.286;104.306;2024-01-15T08:33:48;9.20;;;3.00;;
77076;SDS011;66003;52.286;104.306;2024-01-15T08:36:14;6.85;;;2.58;;
77076;SDS011;66003;52.286;104.306;2024-01-15T08:38:40;6.88;;;2.33;;
77076;SDS011;66003;52.286;104.306;2024-01-15T08:41:07;5.85;;;2.25;;
77076;SDS011;66003;52.286;104.306;2024-01-15T08:43:34;10.43;;;3.63;;
77076;SDS011;66003;52.286;104.306;2024-01-15T08:46:01;9.48;;;4.05;;
77076;SDS011;66003;52.286;104.306;2024-01-15T08:48:28;11.68;;;3.13;;
77076;SDS011;66003;52.286;104.306;2024-01-15T08:50:54;5.00;;;2.17;;
77076;SDS011;66003;52.286;104.306;2024-01-15T08:53:21;6.00;;;2.38;;
77076;SDS011;66003;52.286;104.306;2024-01-15T08:55:48;6.13;;;2.47;;
77076;SDS011;66003;52.286;104.306;2024-01-15T08:58:15;7.75;;;2.05;;
77076;SDS011;66003;52.286;104.306;2024-01-15T09:00:41;9.90;;;2.55;;
77076;SDS011;66003;52.286;104.306;2024-01-15T09:03:07;4.57;;;2.20;;
77076;SDS011;66003;52.286;104.306;2024-01-15T09:05:34;9.40;;;2.97;;
77076;SDS011;66003;52.286;104.306;2024-01-15T09:08:01;10.85;;;2.60;;
77076;SDS011;66003;52.286;104.306;2024-01-15T09:10:27;10.20;;;3.28;;
77076;SDS011;66003;52.286;104.306;2024-01-15T09:12:53;3.78;;;2.08;;
77076;SDS011;66003;52.286;104.306;2024-01-15T09:15:19;5.93;;;2.33;;
77076;SDS011;66003;52.286;104.306;2024-01-15T09:17:45;9.70;;;2.60;;
77076;SDS011;66003;52.286;104.306;2024-01-15T09:20:21;6.35;;;2.35;;
77076;SDS011;66003;52.286;104.306;2024-01-15T09:22:48;6.95;;;2.38;;
77076;SDS011;66003;52.286;104.306;2024-01-15T09:25:14;8.35;;;3.83;;
77076;SDS011;66003;52.286;104.306;2024-01-15T09:27:40;6.07;;;2.33;;
77076;SDS011;66003;52.286;104.306;2024-01-15T09:30:06;4.72;;;2.95;;
77076;SDS011;66003;52.286;104.306;2024-01-15T09:32:33;1.98;;;1.35;;
77076;SDS011;66003;52.286;104.306;2024-01-15T09:35:00;6.45;;;1.77;;
77076;SDS011;66003;52.286;104.306;2024-01-15T09:37:26;7.47;;;2.65;;
77076;SDS011;66003;52.286;104.306;2024-01-15T09:39:52;5.13;;;2.65;;
77076;SDS011;66003;52.286;104.306;2024-01-15T09:42:19;6.47;;;2.17;;
77076;SDS011;66003;52.286;104.306;2024-01-15T09:44:46;5.07;;;1.83;;
77076;SDS011;66003;52.286;104.306;2024-01-15T09:47:12;5.43;;;2.67;;
77076;SDS011;66003;52.286;104.306;2024-01-15T09:49:38;6.82;;;3.13;;
77076;SDS011;66003;52.286;104.306;2024-01-15T09:52:06;6.40;;;3.13;;
77076;SDS011;66003;52.286;104.306;2024-01-15T09:54:33;4.47;;;1.17;;
77076;SDS011;66003;52.286;104.306;2024-01-15T09:57:00;9.82;;;2.88;;
77076;SDS011;66003;52.286;104.306;2024-01-15T09:59:27;9.35;;;3.08;;
77076;SDS011;66003;52.286;104.306;2024-01-15T10:02:18;7.60;;;3.35;;
77076;SDS011;66003;52.286;104.306;2024-01-15T10:04:55;4.88;;;3.00;;
77076;SDS011;66003;52.286;104.306;2024-01-15T10:07:51;4.57;;;2.15;;
77076;SDS011;66003;52.286;104.306;2024-01-15T10:10:19;4.80;;;1.70;;
77076;SDS011;66003;52.286;104.306;2024-01-15T10:12:45;8.27;;;2.72;;
77076;SDS011;66003;52.286;104.306;2024-01-15T10:15:11;6.45;;;2.67;;
77076;SDS011;66003;52.286;104.306;2024-01-15T10:17:38;7.40;;;2.60;;
77076;SDS011;66003;52.286;104.306;2024-01-15T10:20:11;3.88;;;1.83;;
77076;SDS011;66003;52.286;104.306;2024-01-15T10:22:52;10.43;;;2.85;;
77076;SDS011;66003;52.286;104.306;2024-01-15T10:25:19;3.03;;;1.48;;
77076;SDS011;66003;52.286;104.306;2024-01-15T10:30:59;3.65;;;2.00;;
77076;SDS011;66003;52.286;104.306;2024-01-15T10:33:26;4.15;;;2.25;;
77076;SDS011;66003;52.286;104.306;2024-01-15T10:35:59;3.58;;;3.05;;
77076;SDS011;66003;52.286;104.306;2024-01-15T10:38:26;6.07;;;3.55;;
77076;SDS011;66003;52.286;104.306;2024-01-15T10:40:57;7.07;;;2.65;;
77076;SDS011;66003;52.286;104.306;2024-01-15T10:43:32;3.40;;;0.95;;
77076;SDS011;66003;52.286;104.306;2024-01-15T10:45:59;6.60;;;2.60;;
77076;SDS011;66003;52.286;104.306;2024-01-15T10:48:26;5.95;;;2.58;;
77076;SDS011;66003;52.286;104.306;2024-01-15T10:53:19;4.45;;;3.75;;
77076;SDS011;66003;52.286;104.306;2024-01-15T10:55:47;9.70;;;4.60;;
77076;SDS011;66003;52.286;104.306;2024-01-15T10:58:17;12.45;;;4.85;;
77076;SDS011;66003;52.286;104.306;2024-01-15T11:00:44;9.18;;;3.58;;
77076;SDS011;66003;52.286;104.306;2024-01-15T11:03:10;14.60;;;4.20;;
77076;SDS011;66003;52.286;104.306;2024-01-15T11:05:44;9.07;;;3.70;;
77076;SDS011;66003;52.286;104.306;2024-01-15T11:08:16;7.35;;;3.22;;
77076;SDS011;66003;52.286;104.306;2024-01-15T11:10:50;12.80;;;3.65;;
77076;SDS011;66003;52.286;104.306;2024-01-15T11:18:31;9.52;;;4.28;;
77076;SDS011;66003;52.286;104.306;2024-01-15T11:23:48;9.50;;;4.68;;
77076;SDS011;66003;52.286;104.306;2024-01-15T11:31:59;18.83;;;5.65;;
77076;SDS011;66003;52.286;104.306;2024-01-15T11:38:09;15.40;;;7.13;;
77076;SDS011;66003;52.286;104.306;2024-01-15T11:40:42;16.58;;;6.82;;
77076;SDS011;66003;52.286;104.306;2024-01-15T11:43:13;10.43;;;6.40;;
77076;SDS011;66003;52.286;104.306;2024-01-15T11:45:42;25.98;;;9.20;;
77076;SDS011;66003;52.286;104.306;2024-01-15T11:50:48;17.95;;;8.68;;
77076;SDS011;66003;52.286;104.306;2024-01-15T11:55:46;17.88;;;7.88;;
77076;SDS011;66003;52.286;104.306;2024-01-15T12:04:34;15.70;;;6.22;;
77076;SDS011;66003;52.286;104.306;2024-01-15T12:07:00;12.55;;;5.90;;
77076;SDS011;66003;52.286;104.306;2024-01-15T12:09:27;10.98;;;5.75;;
77076;SDS011;66003;52.286;104.306;2024-01-15T12:11:57;12.80;;;6.07;;
77076;SDS011;66003;52.286;104.306;2024-01-15T12:14:33;10.77;;;4.13;;
77076;SDS011;66003;52.286;104.306;2024-01-15T12:17:00;13.38;;;6.60;;
77076;SDS011;66003;52.286;104.306;2024-01-15T12:19:26;5.45;;;3.72;;
77076;SDS011;66003;52.286;104.306;2024-01-15T12:21:53;9.18;;;3.72;;
77076;SDS011;66003;52.286;104.306;2024-01-15T12:27:05;9.98;;;5.82;;
77076;SDS011;66003;52.286;104.306;2024-01-15T12:29:31;8.82;;;5.07;;
77076;SDS011;66003;52.286;104.306;2024-01-15T12:31:57;10.88;;;5.43;;
77076;SDS011;66003;52.286;104.306;2024-01-15T12:34:42;14.63;;;5.97;;
77076;SDS011;66003;52.286;104.306;2024-01-15T12:37:40;12.10;;;4.85;;
77076;SDS011;66003;52.286;104.306;2024-01-15T12:45:24;11.30;;;4.40;;
77076;SDS011;66003;52.286;104.306;2024-01-15T12:47:55;13.60;;;8.77;;
77076;SDS011;66003;52.286;104.306;2024-01-15T12:50:24;26.30;;;11.43;;
77076;SDS011;66003;52.286;104.306;2024-01-15T12:52:55;36.78;;;16.63;;
77076;SDS011;66003;52.286;104.306;2024-01-15T12:55:24;24.75;;;13.20;;
77076;SDS011;66003;52.286;104.306;2024-01-15T12:58:05;26.75;;;12.57;;
77076;SDS011;66003;52.286;104.306;2024-01-15T13:01:43;33.55;;;13.43;;
77076;SDS011;66003;52.286;104.306;2024-01-15T13:04:22;26.60;;;11.75;;
77076;SDS011;66003;52.286;104.306;2024-01-15T13:06:54;35.15;;;15.20;;
77076;SDS011;66003;52.286;104.306;2024-01-15T13:09:22;37.15;;;15.15;;
77076;SDS011;66003;52.286;104.306;2024-01-15T13:11:49;27.25;;;15.32;;
77076;SDS011;66003;52.286;104.306;2024-01-15T13:14:18;32.33;;;14.45;;
77076;SDS011;66003;52.286;104.306;2024-01-15T13:16:45;23.58;;;11.98;;
77076;SDS011;66003;52.286;104.306;2024-01-15T13:19:12;31.45;;;15.57;;
77076;SDS011;66003;52.286;104.306;2024-01-15T13:21:40;31.92;;;15.45;;
77076;SDS011;66003;52.286;104.306;2024-01-15T13:24:06;35.20;;;16.67;;
77076;SDS011;66003;52.286;104.306;2024-01-15T13:26:41;49.03;;;21.98;;
77076;SDS011;66003;52.286;104.306;2024-01-15T13:29:08;29.63;;;16.05;;
77076;SDS011;66003;52.286;104.306;2024-01-15T13:31:35;53.97;;;26.42;;
77076;SDS011;66003;52.286;104.306;2024-01-15T13:34:03;44.92;;;20.52;;
77076;SDS011;66003;52.286;104.306;2024-01-15T13:36:32;29.88;;;15.95;;
77076;SDS011;66003;52.286;104.306;2024-01-15T13:39:02;32.08;;;14.65;;
77076;SDS011;66003;52.286;104.306;2024-01-15T13:43:56;17.73;;;12.13;;
77076;SDS011;66003;52.286;104.306;2024-01-15T13:51:38;14.57;;;6.50;;
77076;SDS011;66003;52.286;104.306;2024-01-15T13:54:05;4.15;;;2.65;;
77076;SDS011;66003;52.286;104.306;2024-01-15T13:56:33;1.85;;;1.75;;
77076;SDS011;66003;52.286;104.306;2024-01-15T13:59:07;8.70;;;4.10;;
77076;SDS011;66003;52.286;104.306;2024-01-15T14:01:42;8.02;;;5.70;;
77076;SDS011;66003;52.286;104.306;2024-01-15T14:04:09;19.45;;;11.10;;
77076;SDS011;66003;52.286;104.306;2024-01-15T14:06:35;5.68;;;2.88;;
77076;SDS011;66003;52.286;104.306;2024-01-15T14:09:01;25.83;;;9.60;;
77076;SDS011;66003;52.286;104.306;2024-01-15T14:11:30;12.93;;;3.17;;
77076;SDS011;66003;52.286;104.306;2024-01-15T14:13:57;14.60;;;5.93;;
77076;SDS011;66003;52.286;104.306;2024-01-15T14:16:23;17.08;;;9.80;;
77076;SDS011;66003;52.286;104.306;2024-01-15T14:18:49;18.65;;;4.25;;
77076;SDS011;66003;52.286;104.306;2024-01-15T14:21:15;11.18;;;5.70;;
77076;SDS011;66003;52.286;104.306;2024-01-15T14:23:42;12.57;;;6.32;;
77076;SDS011;66003;52.286;104.306;2024-01-15T14:26:08;14.07;;;7.20;;
77076;SDS011;66003;52.286;104.306;2024-01-15T14:28:35;3.47;;;3.22;;
77076;SDS011;66003;52.286;104.306;2024-01-15T14:31:01;10.77;;;6.07;;
77076;SDS011;66003;52.286;104.306;2024-01-15T14:33:28;13.80;;;5.82;;
77076;SDS011;66003;52.286;104.306;2024-01-15T14:35:54;12.55;;;4.68;;
77076;SDS011;66003;52.286;104.306;2024-01-15T14:38:20;14.98;;;7.20;;
77076;SDS011;66003;52.286;104.306;2024-01-15T14:40:46;7.88;;;4.10;;
77076;SDS011;66003;52.286;104.306;2024-01-15T14:43:13;5.18;;;3.15;;
77076;SDS011;66003;52.286;104.306;2024-01-15T14:45:39;9.57;;;5.72;;
77076;SDS011;66003;52.286;104.306;2024-01-15T14:48:05;9.15;;;4.07;;
77076;SDS011;66003;52.286;104.306;2024-01-15T14:50:31;10.45;;;3.25;;
77076;SDS011;66003;52.286;104.306;2024-01-15T14:53:16;7.18;;;4.85;;
77076;SDS011;66003;52.286;104.306;2024-01-15T14:55:43;21.83;;;7.00;;
77076;SDS011;66003;52.286;104.306;2024-01-15T14:58:09;8.68;;;4.30;;
77076;SDS011;66003;52.286;104.306;2024-01-15T15:00:35;6.57;;;3.97;;
77076;SDS011;66003;52.286;104.306;2024-01-15T15:03:01;8.43;;;3.80;;
77076;SDS011;66003;52.286;104.306;2024-01-15T15:05:28;13.52;;;4.88;;
77076;SDS011;66003;52.286;104.306;2024-01-15T15:07:54;8.13;;;4.82;;
77076;SDS011;66003;52.286;104.306;2024-01-15T15:10:21;6.85;;;3.75;;
77076;SDS011;66003;52.286;104.306;2024-01-15T15:12:47;4.72;;;2.47;;
77076;SDS011;66003;52.286;104.306;2024-01-15T15:15:13;7.35;;;2.63;;
77076;SDS011;66003;52.286;104.306;2024-01-15T15:17:39;6.15;;;5.15;;
77076;SDS011;66003;52.286;104.306;2024-01-15T15:20:06;4.07;;;3.63;;
77076;SDS011;66003;52.286;104.306;2024-01-15T15:22:32;3.55;;;2.83;;
77076;SDS011;66003;52.286;104.306;2024-01-15T15:24:58;4.10;;;2.38;;
77076;SDS011;66003;52.286;104.306;2024-01-15T15:27:25;5.70;;;2.67;;
77076;SDS011;66003;52.286;104.306;2024-01-15T15:29:53;10.73;;;5.18;;
77076;SDS011;66003;52.286;104.306;2024-01-15T15:32:19;2.88;;;1.55;;